createdAt,value
2023-02-19T00:01:41.028Z,1.13
2023-02-19T00:04:10.724Z,1.20
2023-02-19T00:06:38.148Z,1.20
2023-02-19T00:09:05.592Z,1.03
2023-02-19T00:11:34.558Z,1.10
2023-02-19T00:14:03.369Z,1.40
2023-02-19T00:16:36.301Z,1.47
2023-02-19T00:19:06.127Z,1.13
2023-02-19T00:21:33.782Z,1.20
2023-02-19T00:24:03.406Z,2.00
2023-02-19T00:26:31.426Z,1.40
2023-02-19T00:29:00.362Z,1.10
2023-02-19T00:31:29.518Z,1.30
2023-02-19T00:34:00.455Z,1.00
2023-02-19T00:36:28.459Z,0.97
2023-02-19T00:38:55.656Z,0.90
2023-02-19T00:41:26.583Z,1.17
2023-02-19T00:43:56.451Z,1.00
2023-02-19T00:46:28.992Z,1.30
2023-02-19T00:48:57.216Z,1.40
2023-02-19T00:51:27.267Z,1.30
2023-02-19T00:53:54.844Z,1.33
2023-02-19T00:56:22.352Z,1.20
2023-02-19T00:58:52.454Z,1.20
2023-02-19T01:01:20.782Z,1.10
2023-02-19T01:03:48.317Z,1.13
2023-02-19T01:06:17.852Z,0.90
2023-02-19T01:08:45.397Z,0.97
2023-02-19T01:11:13.553Z,1.43
2023-02-19T01:13:42.624Z,1.10
2023-02-19T01:16:14.101Z,1.40
2023-02-19T01:18:41.528Z,1.30
2023-02-19T01:21:12.210Z,1.43
2023-02-19T01:23:39.966Z,0.97
2023-02-19T01:26:09.654Z,1.30
2023-02-19T01:28:36.894Z,1.43
2023-02-19T01:31:05.891Z,0.90
2023-02-19T01:33:34.074Z,0.93
2023-02-19T01:36:04.680Z,1.10
2023-02-19T01:38:32.049Z,0.97
2023-02-19T01:41:04.767Z,1.03
2023-02-19T01:43:33.591Z,1.10
2023-02-19T01:46:01.659Z,1.20
2023-02-19T01:48:37.130Z,1.20
2023-02-19T01:51:13.997Z,1.10
2023-02-19T01:53:45.947Z,1.03
2023-02-19T01:56:16.120Z,0.90
2023-02-19T01:58:43.324Z,0.90
2023-02-19T02:01:10.927Z,1.00
2023-02-19T02:03:40.766Z,1.00
2023-02-19T02:06:25.105Z,1.20
2023-02-19T02:09:14.510Z,1.27
2023-02-19T02:11:49.275Z,1.20
2023-02-19T02:14:19.250Z,1.33
2023-02-19T02:17:00.259Z,1.20
2023-02-19T02:20:05.363Z,0.90
2023-02-19T02:22:38.462Z,0.60
2023-02-19T02:25:29.411Z,0.80
2023-02-19T02:28:02.234Z,0.70
2023-02-19T02:30:32.760Z,0.80
2023-02-19T02:33:31.658Z,0.80
2023-02-19T02:36:07.356Z,1.00
2023-02-19T02:38:39.313Z,1.07
2023-02-19T02:41:07.351Z,1.13
2023-02-19T02:43:34.412Z,0.97
2023-02-19T02:46:01.614Z,0.80
2023-02-19T02:48:54.149Z,0.90
2023-02-19T02:51:35.767Z,0.90
2023-02-19T02:54:55.430Z,0.93
2023-02-19T02:57:22.385Z,0.70
2023-02-19T02:59:49.804Z,0.77
2023-02-19T03:02:23.105Z,1.10
2023-02-19T03:05:49.880Z,0.70
2023-02-19T03:08:27.410Z,0.90
2023-02-19T03:11:24.561Z,0.77
2023-02-19T03:14:18.190Z,1.00
2023-02-19T03:17:07.040Z,0.80
2023-02-19T03:19:38.007Z,1.03
2023-02-19T03:22:16.561Z,1.00
2023-02-19T03:25:14.235Z,0.90
2023-02-19T03:27:44.339Z,0.70
2023-02-19T03:30:16.704Z,1.03
2023-02-19T03:32:58.134Z,0.77
2023-02-19T03:35:31.725Z,0.90
2023-02-19T03:38:08.736Z,0.90
2023-02-19T03:40:56.563Z,1.00
2023-02-19T03:43:58.047Z,1.03
2023-02-19T03:46:44.286Z,1.00
2023-02-19T03:49:18.525Z,0.90
2023-02-19T03:52:01.977Z,0.83
2023-02-19T03:54:54.604Z,0.83
2023-02-19T03:57:28.514Z,0.87
2023-02-19T03:59:59.166Z,0.57
2023-02-19T04:02:47.813Z,0.70
2023-02-19T04:05:17.254Z,0.90
2023-02-19T04:07:49.017Z,0.73
2023-02-19T04:10:19.092Z,0.80
2023-02-19T04:12:53.327Z,0.80
2023-02-19T04:15:25.409Z,0.80
2023-02-19T04:18:07.094Z,0.90
2023-02-19T04:20:42.532Z,1.00
2023-02-19T04:23:10.046Z,0.60
2023-02-19T04:25:40.128Z,0.80
2023-02-19T04:28:09.127Z,0.60
2023-02-19T04:30:36.242Z,0.70
2023-02-19T04:33:03.340Z,0.67
2023-02-19T04:35:30.376Z,0.90
2023-02-19T04:37:57.291Z,0.80
2023-02-19T04:40:24.286Z,0.70
2023-02-19T04:42:51.282Z,0.70
2023-02-19T04:45:18.443Z,0.70
2023-02-19T04:47:45.644Z,0.70
2023-02-19T04:50:13.242Z,0.90
2023-02-19T04:52:40.258Z,1.10
2023-02-19T04:55:08.174Z,0.63
2023-02-19T04:57:35.927Z,1.00
2023-02-19T05:00:04.687Z,1.00
2023-02-19T05:02:31.805Z,0.73
2023-02-19T05:04:58.842Z,0.80
2023-02-19T05:07:25.813Z,0.80
2023-02-19T05:09:52.888Z,0.60
2023-02-19T05:12:20.048Z,0.50
2023-02-19T05:14:47.159Z,0.60
2023-02-19T05:17:14.200Z,0.60
2023-02-19T05:19:41.320Z,0.70
2023-02-19T05:22:08.494Z,0.93
2023-02-19T05:24:35.570Z,0.63
2023-02-19T05:27:02.436Z,0.80
2023-02-19T05:29:33.763Z,0.80
2023-02-19T05:32:00.711Z,0.90
2023-02-19T05:34:27.814Z,0.80
2023-02-19T05:36:54.691Z,1.43
2023-02-19T05:39:21.688Z,0.83
2023-02-19T05:41:48.685Z,0.80
2023-02-19T05:44:15.722Z,0.80
2023-02-19T05:46:42.776Z,0.73
2023-02-19T05:49:09.880Z,0.87
2023-02-19T05:51:40.041Z,0.80
2023-02-19T05:54:07.328Z,0.80
2023-02-19T05:56:36.856Z,0.70
2023-02-19T05:59:25.061Z,0.70
2023-02-19T06:01:54.179Z,0.70
2023-02-19T06:04:21.642Z,0.70
2023-02-19T06:06:49.166Z,0.83
2023-02-19T06:09:16.720Z,0.70
2023-02-19T06:11:44.319Z,1.80
2023-02-19T06:14:14.090Z,0.70
2023-02-19T06:16:41.343Z,0.70
2023-02-19T06:19:08.646Z,0.77
2023-02-19T06:21:38.640Z,0.80
2023-02-19T06:24:07.777Z,0.87
2023-02-19T06:26:35.160Z,0.90
2023-02-19T06:29:02.248Z,0.90
2023-02-19T06:31:29.391Z,0.80
2023-02-19T06:33:56.571Z,0.80
2023-02-19T06:36:24.136Z,0.70
2023-02-19T06:38:51.522Z,0.70
2023-02-19T06:41:19.308Z,1.00
2023-02-19T06:43:46.855Z,0.80
2023-02-19T06:46:14.752Z,0.70
2023-02-19T06:48:43.530Z,1.10
2023-02-19T06:51:15.526Z,0.80
2023-02-19T06:53:42.623Z,0.70
2023-02-19T06:56:22.376Z,0.87
2023-02-19T06:58:49.680Z,1.00
2023-02-19T07:01:17.072Z,1.33
2023-02-19T07:03:44.446Z,2.00
2023-02-19T07:06:11.486Z,2.63
2023-02-19T07:08:38.456Z,1.80
2023-02-19T07:11:05.573Z,1.60
2023-02-19T07:13:32.728Z,1.10
2023-02-19T07:16:02.462Z,0.80
2023-02-19T07:18:40.045Z,0.90
2023-02-19T07:21:10.301Z,0.90
2023-02-19T07:23:46.803Z,1.00
2023-02-19T07:26:21.407Z,1.20
2023-02-19T07:28:50.458Z,1.10
2023-02-19T07:31:20.135Z,0.93
2023-02-19T07:33:47.854Z,1.03
2023-02-19T07:36:17.063Z,0.87
2023-02-19T07:38:45.065Z,1.03
2023-02-19T07:41:12.720Z,1.00
2023-02-19T07:43:40.336Z,0.90
2023-02-19T07:46:12.907Z,1.10
2023-02-19T07:48:41.491Z,1.20
2023-02-19T07:51:12.140Z,1.63
2023-02-19T07:53:39.350Z,1.13
2023-02-19T07:56:08.283Z,1.20
2023-02-19T07:58:35.736Z,1.30
2023-02-19T08:01:12.385Z,1.47
2023-02-19T08:03:40.255Z,1.73
2023-02-19T08:06:08.019Z,2.47
2023-02-19T08:08:34.965Z,3.27
2023-02-19T08:11:22.531Z,2.97
2023-02-19T08:13:52.404Z,1.87
2023-02-19T08:16:29.741Z,1.27
2023-02-19T08:19:00.523Z,1.17
2023-02-19T08:21:27.658Z,1.20
2023-02-19T08:23:54.684Z,1.17
2023-02-19T08:26:21.739Z,1.77
2023-02-19T08:28:49.332Z,1.93
2023-02-19T08:31:16.421Z,1.63
2023-02-19T08:33:43.405Z,1.70
2023-02-19T08:36:11.515Z,1.30
2023-02-19T08:38:39.001Z,1.50
2023-02-19T08:41:12.162Z,2.13
2023-02-19T08:43:40.142Z,1.87
2023-02-19T08:46:10.448Z,1.70
2023-02-19T08:48:39.020Z,1.80
2023-02-19T08:51:09.427Z,1.47
2023-02-19T08:53:41.090Z,1.33
2023-02-19T08:56:13.780Z,1.30
2023-02-19T08:58:41.727Z,1.50
2023-02-19T09:01:15.560Z,2.17
2023-02-19T09:03:43.168Z,1.63
2023-02-19T09:06:19.500Z,1.70
2023-02-19T09:08:47.054Z,1.87
2023-02-19T09:11:14.740Z,1.53
2023-02-19T09:13:42.131Z,1.37
2023-02-19T09:16:09.830Z,1.23
2023-02-19T09:18:37.285Z,1.37
2023-02-19T09:21:05.610Z,1.30
2023-02-19T09:23:36.743Z,1.30
2023-02-19T09:26:07.149Z,1.60
2023-02-19T09:28:34.557Z,1.70
2023-02-19T09:31:06.274Z,1.40
2023-02-19T09:33:34.170Z,1.23
2023-02-19T09:36:02.062Z,1.03
2023-02-19T09:38:30.542Z,1.10
2023-02-19T09:41:07.005Z,1.50
2023-02-19T09:43:34.611Z,1.40
2023-02-19T09:46:04.081Z,1.20
2023-02-19T09:48:31.767Z,1.20
2023-02-19T09:51:01.807Z,1.00
2023-02-19T09:53:36.325Z,1.00
2023-02-19T09:56:03.683Z,0.70
2023-02-19T09:58:35.844Z,0.90
2023-02-19T10:01:04.424Z,0.97
2023-02-19T10:03:34.599Z,0.97
2023-02-19T10:06:24.116Z,1.13
2023-02-19T10:08:57.121Z,1.00
2023-02-19T10:11:27.518Z,1.10
2023-02-19T10:14:05.404Z,1.03
2023-02-19T10:16:32.937Z,1.20
2023-02-19T10:19:00.285Z,1.10
2023-02-19T10:21:28.449Z,0.90
2023-02-19T10:23:57.458Z,1.37
2023-02-19T10:26:25.537Z,1.10
2023-02-19T10:28:54.279Z,0.70
2023-02-19T10:31:23.364Z,1.10
2023-02-19T10:33:58.071Z,0.87
2023-02-19T10:36:41.891Z,0.67
2023-02-19T10:39:25.199Z,0.87
2023-02-19T10:41:54.672Z,0.73
2023-02-19T10:44:27.524Z,0.97
2023-02-19T10:46:56.060Z,0.80
2023-02-19T10:49:46.244Z,0.80
2023-02-19T10:52:20.173Z,1.20
2023-02-19T10:54:51.180Z,0.70
2023-02-19T10:57:23.045Z,0.80
2023-02-19T10:59:54.564Z,0.93
2023-02-19T11:02:22.424Z,0.70
2023-02-19T11:05:08.218Z,0.90
2023-02-19T11:07:37.168Z,0.73
2023-02-19T11:10:05.687Z,0.80
2023-02-19T11:12:35.296Z,1.17
2023-02-19T11:15:14.851Z,1.00
2023-02-19T11:17:45.079Z,1.00
2023-02-19T11:20:16.257Z,0.97
2023-02-19T11:22:47.681Z,1.20
2023-02-19T11:25:15.228Z,1.03
2023-02-19T11:28:03.359Z,0.87
2023-02-19T11:30:32.283Z,1.10
2023-02-19T11:33:22.548Z,0.90
2023-02-19T11:35:50.840Z,1.00
2023-02-19T11:38:19.803Z,1.20
2023-02-19T11:40:53.688Z,1.10
2023-02-19T11:43:30.763Z,1.37
2023-02-19T11:45:58.214Z,0.87
2023-02-19T11:48:31.648Z,1.00
2023-02-19T11:51:08.193Z,1.27
2023-02-19T11:53:39.285Z,1.20
2023-02-19T11:56:06.726Z,1.47
2023-02-19T11:58:43.405Z,1.30
2023-02-19T12:01:24.124Z,1.20
2023-02-19T12:04:01.640Z,1.20
2023-02-19T12:06:47.501Z,1.63
2023-02-19T12:09:19.520Z,1.00
2023-02-19T12:11:46.765Z,1.23
2023-02-19T12:14:14.081Z,1.40
2023-02-19T12:16:44.571Z,1.20
2023-02-19T12:19:28.560Z,1.30
2023-02-19T12:22:13.317Z,1.23
2023-02-19T12:24:43.479Z,1.10
2023-02-19T12:27:10.840Z,1.40
2023-02-19T12:29:47.284Z,1.13
2023-02-19T12:32:35.003Z,1.40
2023-02-19T12:35:17.321Z,1.50
2023-02-19T12:38:00.519Z,1.17
2023-02-19T12:40:49.408Z,1.50
2023-02-19T12:43:19.321Z,1.33
2023-02-19T12:45:49.340Z,1.37
2023-02-19T12:48:36.278Z,1.77
2023-02-19T12:51:06.733Z,1.70
2023-02-19T12:53:38.910Z,1.70
2023-02-19T12:56:09.772Z,1.67
2023-02-19T12:58:49.646Z,1.60
2023-02-19T13:01:37.406Z,2.00
2023-02-19T13:04:15.530Z,1.70
2023-02-19T13:06:59.152Z,1.90
2023-02-19T13:09:48.208Z,1.70
2023-02-19T13:12:24.870Z,1.43
2023-02-19T13:15:00.714Z,1.90
2023-02-19T13:17:48.365Z,2.70
2023-02-19T13:20:25.178Z,1.90
2023-02-19T13:23:20.177Z,2.60
2023-02-19T13:26:06.051Z,2.03
2023-02-19T13:28:39.799Z,2.10
2023-02-19T13:31:10.589Z,1.70
2023-02-19T13:33:45.270Z,1.90
2023-02-19T13:36:14.272Z,1.70
2023-02-19T13:38:46.227Z,1.83
2023-02-19T13:41:21.151Z,1.90
2023-02-19T13:43:55.442Z,1.90
2023-02-19T13:46:22.980Z,1.83
2023-02-19T13:49:10.309Z,1.80
2023-02-19T13:51:37.575Z,1.50
2023-02-19T13:54:14.604Z,1.50
2023-02-19T13:56:41.973Z,1.57
2023-02-19T13:59:12.388Z,1.80
2023-02-19T14:01:48.923Z,1.77
2023-02-19T14:04:21.400Z,1.83
2023-02-19T14:07:04.047Z,1.33
2023-02-19T14:09:37.493Z,1.87
2023-02-19T14:12:05.058Z,1.80
2023-02-19T14:14:36.171Z,1.53
2023-02-19T14:17:05.761Z,1.40
2023-02-19T14:19:42.377Z,1.30
2023-02-19T14:22:30.087Z,1.40
2023-02-19T14:24:58.792Z,1.50
2023-02-19T14:27:26.545Z,1.83
2023-02-19T14:29:54.248Z,1.50
2023-02-19T14:32:21.678Z,1.53
2023-02-19T14:34:49.290Z,1.70
2023-02-19T14:37:18.882Z,1.50
2023-02-19T14:39:47.090Z,1.90
2023-02-19T14:42:14.438Z,1.60
2023-02-19T14:45:02.016Z,0.97
2023-02-19T14:47:33.451Z,1.40
2023-02-19T14:50:02.866Z,1.30
2023-02-19T14:52:36.894Z,1.20
2023-02-19T14:55:10.146Z,1.80
2023-02-19T14:57:41.183Z,1.17
2023-02-19T15:00:26.612Z,1.20
2023-02-19T15:02:56.895Z,1.60
2023-02-19T15:05:30.332Z,1.37
2023-02-19T15:08:03.275Z,1.47
2023-02-19T15:10:33.693Z,1.60
2023-02-19T15:13:05.057Z,1.40
2023-02-19T15:15:36.610Z,1.47
2023-02-19T15:18:05.620Z,1.60
2023-02-19T15:20:38.170Z,1.40
2023-02-19T15:23:07.575Z,1.30
2023-02-19T15:25:37.993Z,1.20
2023-02-19T15:28:23.647Z,1.00
2023-02-19T15:31:11.763Z,1.20
2023-02-19T15:33:39.047Z,1.40
2023-02-19T15:36:08.345Z,1.37
2023-02-19T15:38:35.653Z,0.90
2023-02-19T15:41:02.965Z,1.50
2023-02-19T15:43:44.624Z,1.13
2023-02-19T15:46:21.310Z,1.10
2023-02-19T15:49:06.255Z,1.20
2023-02-19T15:51:55.543Z,0.80
2023-02-19T15:54:31.646Z,1.10
2023-02-19T15:57:04.343Z,1.10
2023-02-19T15:59:47.005Z,1.13
2023-02-19T16:02:15.809Z,1.10
2023-02-19T16:04:44.858Z,1.20
2023-02-19T16:07:34.934Z,1.07
2023-02-19T16:10:23.942Z,0.97
2023-02-19T16:12:58.718Z,1.10
2023-02-19T16:15:27.297Z,1.03
2023-02-19T16:17:55.142Z,0.90
2023-02-19T16:20:27.609Z,0.70
2023-02-19T16:23:02.212Z,0.97
2023-02-19T16:25:44.338Z,1.00
2023-02-19T16:28:23.097Z,0.80
2023-02-19T16:31:07.483Z,1.00
2023-02-19T16:33:50.489Z,1.33
2023-02-19T16:36:36.003Z,0.97
2023-02-19T16:39:09.374Z,1.00
2023-02-19T16:41:50.946Z,0.93
2023-02-19T16:44:20.946Z,0.93
2023-02-19T16:46:53.211Z,1.00
2023-02-19T16:49:21.077Z,1.00
2023-02-19T16:51:48.208Z,1.03
2023-02-19T16:54:15.289Z,0.70
2023-02-19T16:56:42.272Z,0.80
2023-02-19T16:59:09.296Z,1.00
2023-02-19T17:01:37.152Z,1.20
2023-02-19T17:04:08.221Z,1.00
2023-02-19T17:06:38.024Z,1.03
2023-02-19T17:09:06.691Z,1.10
2023-02-19T17:11:33.703Z,1.00
2023-02-19T17:14:01.717Z,0.80
2023-02-19T17:16:31.939Z,0.90
2023-02-19T17:18:59.061Z,0.90
2023-02-19T17:21:29.013Z,1.03
2023-02-19T17:23:59.644Z,1.00
2023-02-19T17:26:29.046Z,0.80
2023-02-19T17:29:00.473Z,0.90
2023-02-19T17:31:28.135Z,1.30
2023-02-19T17:33:55.546Z,1.30
2023-02-19T17:36:27.010Z,1.60
2023-02-19T17:38:54.648Z,1.17
2023-02-19T17:41:21.617Z,0.97
2023-02-19T17:43:50.516Z,0.90
2023-02-19T17:46:19.274Z,0.90
2023-02-19T17:48:46.533Z,1.30
2023-02-19T17:51:14.064Z,1.67
2023-02-19T17:53:41.774Z,1.10
2023-02-19T17:56:08.929Z,1.17
2023-02-19T17:58:35.975Z,0.83
2023-02-19T18:01:03.035Z,1.20
2023-02-19T18:03:30.271Z,1.50
2023-02-19T18:05:57.326Z,1.40
2023-02-19T18:08:24.898Z,1.73
2023-02-19T18:10:52.812Z,2.00
2023-02-19T18:13:19.842Z,2.10
2023-02-19T18:15:46.886Z,1.93
2023-02-19T18:18:13.938Z,1.40
2023-02-19T18:20:41.326Z,2.07
2023-02-19T18:23:08.333Z,1.40
2023-02-19T18:25:35.293Z,1.73
2023-02-19T18:28:02.488Z,1.47
2023-02-19T18:30:30.070Z,0.80
2023-02-19T18:32:58.291Z,1.03
2023-02-19T18:35:25.280Z,0.70
2023-02-19T18:37:56.214Z,1.63
2023-02-19T18:40:26.069Z,1.47
2023-02-19T18:42:53.262Z,1.20
2023-02-19T18:45:20.222Z,1.10
2023-02-19T18:47:49.363Z,1.00
2023-02-19T18:50:17.932Z,1.20
2023-02-19T18:52:45.091Z,1.27
2023-02-19T18:55:12.512Z,1.00
2023-02-19T18:57:39.648Z,1.80
2023-02-19T19:00:08.131Z,1.90
2023-02-19T19:02:48.281Z,1.20
2023-02-19T19:05:18.563Z,0.90
2023-02-19T19:07:45.571Z,1.00
2023-02-19T19:10:12.568Z,1.00
2023-02-19T19:12:39.537Z,1.13
2023-02-19T19:15:06.747Z,0.80
2023-02-19T19:17:33.921Z,0.93
2023-02-19T19:20:00.937Z,0.83
2023-02-19T19:22:28.980Z,1.10
2023-02-19T19:24:55.891Z,1.40
2023-02-19T19:27:22.858Z,1.27
2023-02-19T19:29:50.015Z,1.07
2023-02-19T19:32:17.152Z,1.33
2023-02-19T19:34:44.372Z,1.40
2023-02-19T19:37:12.456Z,1.40
2023-02-19T19:39:39.530Z,1.20
2023-02-19T19:42:09.054Z,0.80
2023-02-19T19:44:36.099Z,1.10
2023-02-19T19:47:03.059Z,1.00
2023-02-19T19:49:30.086Z,1.07
2023-02-19T19:52:01.306Z,1.10
2023-02-19T19:54:28.948Z,1.00
2023-02-19T19:56:55.884Z,0.93
2023-02-19T19:59:23.324Z,1.00
2023-02-19T20:01:52.342Z,0.90
2023-02-19T20:04:22.349Z,1.40
2023-02-19T20:06:49.940Z,1.73
2023-02-19T20:09:18.413Z,2.63
2023-02-19T20:11:50.375Z,2.43
2023-02-19T20:14:19.128Z,2.10
2023-02-19T20:16:47.730Z,1.73
2023-02-19T20:19:15.949Z,1.40
2023-02-19T20:21:51.973Z,1.10
2023-02-19T20:24:26.033Z,0.90
2023-02-19T20:26:58.791Z,0.90
2023-02-19T20:29:31.655Z,1.53
2023-02-19T20:32:00.415Z,0.80
2023-02-19T20:34:28.064Z,1.30
2023-02-19T20:36:55.502Z,2.40
2023-02-19T20:39:23.145Z,4.77
2023-02-19T20:41:52.211Z,2.90
2023-02-19T20:44:19.924Z,1.93
2023-02-19T20:46:52.001Z,1.70
2023-02-19T20:49:22.090Z,1.90
2023-02-19T20:51:55.165Z,2.33
2023-02-19T20:54:28.733Z,2.30
2023-02-19T20:56:57.907Z,1.83
2023-02-19T20:59:27.501Z,1.90
2023-02-19T21:01:57.827Z,1.57
2023-02-19T21:04:25.333Z,1.37
2023-02-19T21:06:52.466Z,1.30
2023-02-19T21:09:23.570Z,1.70
2023-02-19T21:11:53.217Z,1.50
2023-02-19T21:14:20.443Z,1.97
2023-02-19T21:16:47.615Z,2.13
2023-02-19T21:19:14.665Z,1.50
2023-02-19T21:21:41.653Z,1.43
2023-02-19T21:24:12.313Z,1.40
2023-02-19T21:26:41.628Z,1.20
2023-02-19T21:29:13.324Z,1.03
2023-02-19T21:31:46.237Z,1.83
2023-02-19T21:34:16.704Z,2.07
2023-02-19T21:36:43.823Z,1.90
2023-02-19T21:39:13.509Z,2.13
2023-02-19T21:41:40.636Z,2.00
2023-02-19T21:44:07.669Z,2.00
2023-02-19T21:46:34.994Z,1.80
2023-02-19T21:49:02.960Z,1.50
2023-02-19T21:51:32.920Z,1.37
2023-02-19T21:54:00.709Z,1.40
2023-02-19T21:56:29.852Z,1.13
2023-02-19T21:58:57.544Z,1.40
2023-02-19T22:01:33.782Z,1.50
2023-02-19T22:04:01.024Z,1.50
2023-02-19T22:06:30.124Z,1.23
2023-02-19T22:08:57.887Z,1.07
2023-02-19T22:11:25.022Z,1.30
2023-02-19T22:13:53.509Z,1.40
2023-02-19T22:16:20.793Z,2.03
2023-02-19T22:18:54.156Z,2.10
2023-02-19T22:21:22.367Z,2.03
2023-02-19T22:23:51.334Z,1.67
2023-02-19T22:26:22.574Z,1.50
2023-02-19T22:28:49.901Z,1.40
2023-02-19T22:31:18.904Z,1.80
2023-02-19T22:33:46.618Z,1.93
2023-02-19T22:36:28.047Z,1.43
2023-02-19T22:38:55.374Z,1.40
2023-02-19T22:41:23.035Z,1.33
2023-02-19T22:43:50.726Z,1.20
2023-02-19T22:46:20.039Z,1.37
2023-02-19T22:48:47.401Z,1.73
2023-02-19T22:51:16.561Z,1.40
2023-02-19T22:53:48.784Z,1.73
2023-02-19T22:56:17.101Z,1.67
2023-02-19T22:58:44.944Z,1.60
2023-02-19T23:01:14.577Z,1.50
2023-02-19T23:03:52.991Z,1.80
2023-02-19T23:06:29.502Z,1.20
2023-02-19T23:08:58.618Z,1.30
2023-02-19T23:11:34.370Z,1.33
2023-02-19T23:14:04.714Z,1.00
2023-02-19T23:16:36.026Z,1.40
2023-02-19T23:19:05.366Z,1.27
2023-02-19T23:21:33.219Z,1.50
2023-02-19T23:24:00.655Z,1.60
2023-02-19T23:26:27.773Z,1.10
2023-02-19T23:28:55.053Z,1.50
2023-02-19T23:31:22.770Z,1.27
2023-02-19T23:33:50.259Z,1.50
2023-02-19T23:36:17.521Z,1.40
2023-02-19T23:38:48.282Z,1.20
2023-02-19T23:41:16.492Z,1.30
2023-02-19T23:43:44.162Z,1.10
2023-02-19T23:46:15.294Z,1.10
2023-02-19T23:48:42.874Z,1.33
2023-02-19T23:51:10.325Z,1.30
2023-02-19T23:53:37.685Z,1.33
2023-02-19T23:56:05.331Z,1.23
2023-02-19T23:58:32.698Z,1.73
